sensor_id;sensor_type;location;lat;lon;timestamp;pressure;altitude;pressure_sealevel;temperature;humidity
72959;BME280;60008;50.826;6.896;2023-02-12T00:02:07;103263.88;;;6.61;100.00
72959;BME280;60008;50.826;6.896;2023-02-12T00:04:52;103259.56;;;6.60;100.00
72959;BME280;60008;50.826;6.896;2023-02-12T00:07:37;103260.31;;;6.62;100.00
72959;BME280;60008;50.826;6.896;2023-02-12T00:10:22;103262.03;;;6.63;100.00
72959;BME280;60008;50.826;6.896;2023-02-12T00:13:11;103259.47;;;6.62;100.00
72959;BME280;60008;50.826;6.896;2023-02-12T00:15:56;103256.09;;;6.58;100.00
72959;BME280;60008;50.826;6.896;2023-02-12T00:18:42;103257.97;;;6.56;100.00
72959;BME280;60008;50.826;6.896;2023-02-12T00:21:27;103258.88;;;6.55;100.00
72959;BME280;60008;50.826;6.896;2023-02-12T00:24:12;103260.75;;;6.53;100.00
72959;BME280;60008;50.826;6.896;2023-02-12T00:26:57;103262.47;;;6.54;100.00
72959;BME280;60008;50.826;6.896;2023-02-12T00:29:42;103257.19;;;6.54;100.00
72959;BME280;60008;50.826;6.896;2023-02-12T00:32:27;103255.19;;;6.59;100.00
72959;BME280;60008;50.826;6.896;2023-02-12T00:35:12;103250.00;;;6.57;100.00
72959;BME280;60008;50.826;6.896;2023-02-12T00:37:57;103257.91;;;6.57;100.00
72959;BME280;60008;50.826;6.896;2023-02-12T00:40:42;103258.75;;;6.58;100.00
72959;BME280;60008;50.826;6.896;2023-02-12T00:43:27;103256.25;;;6.55;100.00
72959;BME280;60008;50.826;6.896;2023-02-12T00:46:12;103257.06;;;6.57;100.00
72959;BME280;60008;50.826;6.896;2023-02-12T00:48:57;103252.56;;;6.59;100.00
72959;BME280;60008;50.826;6.896;2023-02-12T00:51:42;103250.78;;;6.59;100.00
72959;BME280;60008;50.826;6.896;2023-02-12T00:54:28;103256.09;;;6.58;100.00
72959;BME280;60008;50.826;6.896;2023-02-12T00:57:13;103250.84;;;6.58;100.00
72959;BME280;60008;50.826;6.896;2023-02-12T00:59:58;103254.47;;;6.55;100.00
72959;BME280;60008;50.826;6.896;2023-02-12T01:02:44;103259.69;;;6.57;100.00
72959;BME280;60008;50.826;6.896;2023-02-12T01:05:29;103258.88;;;6.55;100.00
72959;BME280;60008;50.826;6.896;2023-02-12T01:08:15;103262.59;;;6.51;100.00
72959;BME280;60008;50.826;6.896;2023-02-12T01:11:03;103269.44;;;6.36;100.00
72959;BME280;60008;50.826;6.896;2023-02-12T01:13:48;103271.88;;;6.22;100.00
72959;BME280;60008;50.826;6.896;2023-02-12T01:16:33;103263.97;;;6.22;100.00
72959;BME280;60008;50.826;6.896;2023-02-12T01:19:19;103272.16;;;6.35;100.00
72959;BME280;60008;50.826;6.896;2023-02-12T01:22:04;103269.16;;;6.42;100.00
72959;BME280;60008;50.826;6.896;2023-02-12T01:24:49;103269.09;;;6.44;100.00
72959;BME280;60008;50.826;6.896;2023-02-12T01:27:34;103275.28;;;6.43;100.00
72959;BME280;60008;50.826;6.896;2023-02-12T01:30:20;103269.94;;;6.44;100.00
72959;BME280;60008;50.826;6.896;2023-02-12T01:33:07;103267.16;;;6.47;100.00
72959;BME280;60008;50.826;6.896;2023-02-12T01:35:53;103265.38;;;6.48;100.00
72959;BME280;60008;50.826;6.896;2023-02-12T01:38:38;103261.84;;;6.49;100.00
72959;BME280;60008;50.826;6.896;2023-02-12T01:41:26;103263.63;;;6.48;100.00
72959;BME280;60008;50.826;6.896;2023-02-12T01:44:17;103255.63;;;6.50;100.00
72959;BME280;60008;50.826;6.896;2023-02-12T01:47:05;103252.94;;;6.51;100.00
72959;BME280;60008;50.826;6.896;2023-02-12T01:49:50;103255.56;;;6.51;100.00
72959;BME280;60008;50.826;6.896;2023-02-12T01:52:37;103254.59;;;6.35;100.00
72959;BME280;60008;50.826;6.896;2023-02-12T01:55:23;103251.22;;;6.32;100.00
72959;BME280;60008;50.826;6.896;2023-02-12T01:58:09;103248.50;;;6.33;100.00
72959;BME280;60008;50.826;6.896;2023-02-12T02:00:54;103244.69;;;6.40;100.00
72959;BME280;60008;50.826;6.896;2023-02-12T02:03:41;103248.03;;;6.44;100.00
72959;BME280;60008;50.826;6.896;2023-02-12T02:06:43;103241.69;;;6.48;100.00
72959;BME280;60008;50.826;6.896;2023-02-12T02:09:32;103241.91;;;6.43;100.00
72959;BME280;60008;50.826;6.896;2023-02-12T02:12:18;103244.59;;;6.42;100.00
72959;BME280;60008;50.826;6.896;2023-02-12T02:15:24;103242.91;;;6.41;100.00
72959;BME280;60008;50.826;6.896;2023-02-12T02:18:26;103242.91;;;6.41;100.00
72959;BME280;60008;50.826;6.896;2023-02-12T02:24:25;103239.00;;;6.49;100.00
72959;BME280;60008;50.826;6.896;2023-02-12T02:27:19;103249.53;;;6.49;100.00
72959;BME280;60008;50.826;6.896;2023-02-12T02:30:12;103248.88;;;6.44;100.00
72959;BME280;60008;50.826;6.896;2023-02-12T02:35:57;103242.19;;;6.37;100.00
72959;BME280;60008;50.826;6.896;2023-02-12T02:38:54;103237.63;;;6.41;100.00
72959;BME280;60008;50.826;6.896;2023-02-12T02:41:50;103235.69;;;6.44;100.00
72959;BME280;60008;50.826;6.896;2023-02-12T02:44:51;103236.50;;;6.46;100.00
72959;BME280;60008;50.826;6.896;2023-02-12T02:47:47;103240.91;;;6.46;100.00
72959;BME280;60008;50.826;6.896;2023-02-12T02:50:34;103243.53;;;6.46;100.00
72959;BME280;60008;50.826;6.896;2023-02-12T02:53:33;103239.13;;;6.46;100.00
72959;BME280;60008;50.826;6.896;2023-02-12T02:56:21;103240.03;;;6.45;100.00
72959;BME280;60008;50.826;6.896;2023-02-12T02:59:14;103232.56;;;6.36;100.00
72959;BME280;60008;50.826;6.896;2023-02-12T03:02:08;103241.28;;;6.38;100.00
72959;BME280;60008;50.826;6.896;2023-02-12T03:04:58;103240.31;;;6.39;100.00
72959;BME280;60008;50.826;6.896;2023-02-12T03:07:52;103239.31;;;6.42;100.00
72959;BME280;60008;50.826;6.896;2023-02-12T03:10:43;103241.91;;;6.43;100.00
72959;BME280;60008;50.826;6.896;2023-02-12T03:13:33;103243.53;;;6.46;100.00
72959;BME280;60008;50.826;6.896;2023-02-12T03:16:30;103239.31;;;6.42;100.00
72959;BME280;60008;50.826;6.896;2023-02-12T03:19:21;103235.78;;;6.43;100.00
72959;BME280;60008;50.826;6.896;2023-02-12T03:22:17;103239.28;;;6.43;100.00
72959;BME280;60008;50.826;6.896;2023-02-12T03:25:12;103233.06;;;6.44;100.00
72959;BME280;60008;50.826;6.896;2023-02-12T03:28:09;103235.63;;;6.46;100.00
72959;BME280;60008;50.826;6.896;2023-02-12T03:34:40;103235.84;;;6.41;100.00
72959;BME280;60008;50.826;6.896;2023-02-12T03:37:35;103228.94;;;6.39;100.00
72959;BME280;60008;50.826;6.896;2023-02-12T03:40:33;103231.66;;;6.37;100.00
72959;BME280;60008;50.826;6.896;2023-02-12T03:43:24;103225.38;;;6.40;100.00
72959;BME280;60008;50.826;6.896;2023-02-12T03:46:19;103229.94;;;6.36;100.00
72959;BME280;60008;50.826;6.896;2023-02-12T03:49:19;103227.25;;;6.38;100.00
72959;BME280;60008;50.826;6.896;2023-02-12T03:52:06;103221.97;;;6.38;100.00
72959;BME280;60008;50.826;6.896;2023-02-12T03:54:51;103227.25;;;6.38;100.00
72959;BME280;60008;50.826;6.896;2023-02-12T03:57:40;103230.31;;;6.29;100.00
72959;BME280;60008;50.826;6.896;2023-02-12T04:00:26;103228.31;;;6.34;100.00
72959;BME280;60008;50.826;6.896;2023-02-12T04:03:12;103229.16;;;6.34;100.00
72959;BME280;60008;50.826;6.896;2023-02-12T04:05:56;103226.47;;;6.36;100.00
72959;BME280;60008;50.826;6.896;2023-02-12T04:08:42;103234.38;;;6.36;100.00
72959;BME280;60008;50.826;6.896;2023-02-12T04:11:35;103236.91;;;6.37;100.00
72959;BME280;60008;50.826;6.896;2023-02-12T04:14:44;103238.06;;;6.32;100.00
72959;BME280;60008;50.826;6.896;2023-02-12T04:17:50;103238.47;;;6.23;100.00
72959;BME280;60008;50.826;6.896;2023-02-12T04:20:52;103246.09;;;6.10;100.00
72959;BME280;60008;50.826;6.896;2023-02-12T04:23:57;103239.84;;;6.13;100.00
72959;BME280;60008;50.826;6.896;2023-02-12T04:26:54;103246.25;;;6.26;100.00
72959;BME280;60008;50.826;6.896;2023-02-12T04:32:40;103238.97;;;6.31;100.00
72959;BME280;60008;50.826;6.896;2023-02-12T04:35:35;103241.25;;;6.20;100.00
72959;BME280;60008;50.826;6.896;2023-02-12T04:38:24;103239.19;;;6.26;100.00
72959;BME280;60008;50.826;6.896;2023-02-12T04:41:11;103244.75;;;6.20;100.00
72959;BME280;60008;50.826;6.896;2023-02-12T04:43:56;103252.22;;;6.29;100.00
72959;BME280;60008;50.826;6.896;2023-02-12T04:46:41;103258.41;;;6.28;100.00
72959;BME280;60008;50.826;6.896;2023-02-12T04:49:26;103255.78;;;6.28;100.00
72959;BME280;60008;50.826;6.896;2023-02-12T04:52:11;103254.13;;;6.26;100.00
72959;BME280;60008;50.826;6.896;2023-02-12T04:54:56;103261.03;;;6.28;100.00
72959;BME280;60008;50.826;6.896;2023-02-12T04:57:41;103261.00;;;6.30;100.00
72959;BME280;60008;50.826;6.896;2023-02-12T05:00:26;103261.69;;;6.33;100.00
72959;BME280;60008;50.826;6.896;2023-02-12T05:03:11;103261.63;;;6.35;100.00
72959;BME280;60008;50.826;6.896;2023-02-12T05:06:01;103255.50;;;6.34;100.00
72959;BME280;60008;50.826;6.896;2023-02-12T05:08:46;103254.59;;;6.35;100.00
72959;BME280;60008;50.826;6.896;2023-02-12T05:11:31;103257.78;;;6.23;100.00
72959;BME280;60008;50.826;6.896;2023-02-12T05:14:17;103255.13;;;6.23;100.00
72959;BME280;60008;50.826;6.896;2023-02-12T05:17:01;103255.84;;;6.27;100.00
72959;BME280;60008;50.826;6.896;2023-02-12T05:19:46;103262.75;;;6.29;100.00
72959;BME280;60008;50.826;6.896;2023-02-12T05:22:31;103262.81;;;6.28;100.00
72959;BME280;60008;50.826;6.896;2023-02-12T05:25:17;103263.63;;;6.30;100.00
72959;BME280;60008;50.826;6.896;2023-02-12T05:28:01;103261.00;;;6.30;100.00
72959;BME280;60008;50.826;6.896;2023-02-12T05:30:46;103261.03;;;6.28;100.00
72959;BME280;60008;50.826;6.896;2023-02-12T05:33:32;103261.91;;;6.29;100.00
72959;BME280;60008;50.826;6.896;2023-02-12T05:36:20;103270.66;;;6.29;100.00
72959;BME280;60008;50.826;6.896;2023-02-12T05:39:06;103262.31;;;6.20;100.00
72959;BME280;60008;50.826;6.896;2023-02-12T05:41:52;103270.56;;;6.12;100.00
72959;BME280;60008;50.826;6.896;2023-02-12T05:44:36;103275.84;;;6.12;100.00
72959;BME280;60008;50.826;6.896;2023-02-12T05:47:22;103278.34;;;6.15;100.00
72959;BME280;60008;50.826;6.896;2023-02-12T05:50:07;103283.31;;;6.21;100.00
72959;BME280;60008;50.826;6.896;2023-02-12T05:52:52;103280.59;;;6.23;100.00
72959;BME280;60008;50.826;6.896;2023-02-12T05:55:36;103280.56;;;6.24;100.00
72959;BME280;60008;50.826;6.896;2023-02-12T05:58:21;103289.31;;;6.25;100.00
72959;BME280;60008;50.826;6.896;2023-02-12T06:01:25;103277.78;;;6.27;100.00
72959;BME280;60008;50.826;6.896;2023-02-12T06:04:25;103281.19;;;6.29;100.00
72959;BME280;60008;50.826;6.896;2023-02-12T06:07:10;103275.97;;;6.28;100.00
72959;BME280;60008;50.826;6.896;2023-02-12T06:09:55;103285.75;;;6.26;100.00
72959;BME280;60008;50.826;6.896;2023-02-12T06:12:40;103283.31;;;6.21;100.00
72959;BME280;60008;50.826;6.896;2023-02-12T06:15:25;103281.34;;;6.26;100.00
72959;BME280;60008;50.826;6.896;2023-02-12T06:18:10;103291.00;;;6.26;100.00
72959;BME280;60008;50.826;6.896;2023-02-12T06:20:56;103276.97;;;6.25;100.00
72959;BME280;60008;50.826;6.896;2023-02-12T06:23:41;103283.97;;;6.26;100.00
72959;BME280;60008;50.826;6.896;2023-02-12T06:26:26;103279.59;;;6.25;100.00
72959;BME280;60008;50.826;6.896;2023-02-12T06:29:11;103285.81;;;6.24;100.00
72959;BME280;60008;50.826;6.896;2023-02-12T06:31:57;103282.31;;;6.24;100.00
72959;BME280;60008;50.826;6.896;2023-02-12T06:34:42;103287.72;;;6.21;100.00
72959;BME280;60008;50.826;6.896;2023-02-12T06:37:27;103279.84;;;6.21;100.00
72959;BME280;60008;50.826;6.896;2023-02-12T06:40:12;103286.00;;;6.20;100.00
72959;BME280;60008;50.826;6.896;2023-02-12T06:42:57;103280.75;;;6.20;100.00
72959;BME280;60008;50.826;6.896;2023-02-12T06:45:42;103280.69;;;6.21;100.00
72959;BME280;60008;50.826;6.896;2023-02-12T06:48:28;103283.31;;;6.21;100.00
72959;BME280;60008;50.826;6.896;2023-02-12T06:51:16;103286.81;;;6.22;100.00
72959;BME280;60008;50.826;6.896;2023-02-12T06:54:01;103285.88;;;6.23;100.00
72959;BME280;60008;50.826;6.896;2023-02-12T06:56:46;103303.31;;;6.25;100.00
72959;BME280;60008;50.826;6.896;2023-02-12T06:59:31;103306.81;;;6.26;100.00
72959;BME280;60008;50.826;6.896;2023-02-12T07:02:16;103304.25;;;6.24;100.00
72959;BME280;60008;50.826;6.896;2023-02-12T07:05:01;103299.00;;;6.24;100.00
72959;BME280;60008;50.826;6.896;2023-02-12T07:07:46;103298.91;;;6.26;100.00
72959;BME280;60008;50.826;6.896;2023-02-12T07:10:31;103303.25;;;6.27;100.00
72959;BME280;60008;50.826;6.896;2023-02-12T07:13:17;103306.81;;;6.26;100.00
72959;BME280;60008;50.826;6.896;2023-02-12T07:16:03;103307.75;;;6.25;100.00
72959;BME280;60008;50.826;6.896;2023-02-12T07:18:49;103313.16;;;6.22;100.00
72959;BME280;60008;50.826;6.896;2023-02-12T07:21:33;103319.91;;;6.27;100.00
72959;BME280;60008;50.826;6.896;2023-02-12T07:24:19;103317.97;;;6.31;100.00
72959;BME280;60008;50.826;6.896;2023-02-12T07:27:04;103326.59;;;6.34;100.00
72959;BME280;60008;50.826;6.896;2023-02-12T07:29:49;103326.00;;;6.28;100.00
72959;BME280;60008;50.826;6.896;2023-02-12T07:32:34;103319.47;;;6.18;100.00
72959;BME280;60008;50.826;6.896;2023-02-12T07:35:18;103323.38;;;6.28;100.00
72959;BME280;60008;50.826;6.896;2023-02-12T07:38:04;103330.09;;;6.35;100.00
72959;BME280;60008;50.826;6.896;2023-02-12T07:40:49;103330.97;;;6.35;100.00
72959;BME280;60008;50.826;6.896;2023-02-12T07:43:33;103328.09;;;6.40;100.00
72959;BME280;60008;50.826;6.896;2023-02-12T07:46:24;103325.25;;;6.44;100.00
72959;BME280;60008;50.826;6.896;2023-02-12T07:49:16;103317.94;;;6.51;100.00
72959;BME280;60008;50.826;6.896;2023-02-12T07:52:01;103326.41;;;6.57;100.00
72959;BME280;60008;50.826;6.896;2023-02-12T07:54:46;103321.69;;;6.64;100.00
72959;BME280;60008;50.826;6.896;2023-02-12T07:57:33;103327.75;;;6.66;100.00
72959;BME280;60008;50.826;6.896;2023-02-12T08:00:18;103327.53;;;6.71;100.00
72959;BME280;60008;50.826;6.896;2023-02-12T08:03:03;103320.69;;;6.67;100.00
72959;BME280;60008;50.826;6.896;2023-02-12T08:05:49;103324.41;;;6.44;100.00
72959;BME280;60008;50.826;6.896;2023-02-12T08:08:33;103336.34;;;6.32;100.00
72959;BME280;60008;50.826;6.896;2023-02-12T08:11:19;103340.34;;;6.41;100.00
72959;BME280;60008;50.826;6.896;2023-02-12T08:14:04;103334.31;;;6.57;100.00
72959;BME280;60008;50.826;6.896;2023-02-12T08:16:50;103340.50;;;6.75;100.00
72959;BME280;60008;50.826;6.896;2023-02-12T08:19:35;103341.41;;;6.74;100.00
72959;BME280;60008;50.826;6.896;2023-02-12T08:22:20;103332.94;;;6.86;100.00
72959;BME280;60008;50.826;6.896;2023-02-12T08:25:06;103331.66;;;6.95;100.00
72959;BME280;60008;50.826;6.896;2023-02-12T08:27:50;103337.63;;;6.98;100.00
72959;BME280;60008;50.826;6.896;2023-02-12T08:30:35;103333.84;;;6.85;100.00
72959;BME280;60008;50.826;6.896;2023-02-12T08:33:20;103346.97;;;6.87;100.00
72959;BME280;60008;50.826;6.896;2023-02-12T08:36:09;103348.91;;;6.83;100.00
72959;BME280;60008;50.826;6.896;2023-02-12T08:38:57;103346.75;;;6.91;100.00
72959;BME280;60008;50.826;6.896;2023-02-12T08:41:43;103352.81;;;6.75;100.00
72959;BME280;60008;50.826;6.896;2023-02-12T08:44:28;103347.81;;;6.69;100.00
72959;BME280;60008;50.826;6.896;2023-02-12T08:47:13;103354.09;;;6.66;100.00
72959;BME280;60008;50.826;6.896;2023-02-12T08:49:59;103352.13;;;6.71;100.00
72959;BME280;60008;50.826;6.896;2023-02-12T08:52:44;103354.50;;;6.94;100.00
72959;BME280;60008;50.826;6.896;2023-02-12T08:55:29;103351.09;;;6.92;100.00
72959;BME280;60008;50.826;6.896;2023-02-12T08:58:15;103351.03;;;6.75;100.00
72959;BME280;60008;50.826;6.896;2023-02-12T09:01:01;103346.00;;;6.71;100.00
72959;BME280;60008;50.826;6.896;2023-02-12T09:03:47;103350.31;;;6.90;100.00
72959;BME280;60008;50.826;6.896;2023-02-12T09:06:33;103348.81;;;6.66;100.00
72959;BME280;60008;50.826;6.896;2023-02-12T09:09:19;103350.09;;;6.95;100.00
72959;BME280;60008;50.826;6.896;2023-02-12T09:12:04;103347.19;;;7.01;100.00
72959;BME280;60008;50.826;6.896;2023-02-12T09:14:49;103347.81;;;7.06;100.00
72959;BME280;60008;50.826;6.896;2023-02-12T09:17:35;103340.91;;;7.03;100.00
72959;BME280;60008;50.826;6.896;2023-02-12T09:20:20;103346.25;;;7.02;100.00
72959;BME280;60008;50.826;6.896;2023-02-12T09:23:06;103341.19;;;6.97;100.00
72959;BME280;60008;50.826;6.896;2023-02-12T09:25:52;103343.88;;;7.32;100.00
72959;BME280;60008;50.826;6.896;2023-02-12T09:28:38;103342.25;;;7.29;100.00
72959;BME280;60008;50.826;6.896;2023-02-12T09:31:26;103346.44;;;7.16;100.00
72959;BME280;60008;50.826;6.896;2023-02-12T09:34:12;103343.75;;;6.99;100.00
72959;BME280;60008;50.826;6.896;2023-02-12T09:36:56;103350.63;;;6.84;100.00
72959;BME280;60008;50.826;6.896;2023-02-12T09:39:41;103338.91;;;7.08;100.00
72959;BME280;60008;50.826;6.896;2023-02-12T09:42:45;103337.84;;;6.94;100.00
72959;BME280;60008;50.826;6.896;2023-02-12T09:45:46;103344.03;;;7.11;100.00
72959;BME280;60008;50.826;6.896;2023-02-12T09:48:44;103341.03;;;7.36;100.00
72959;BME280;60008;50.826;6.896;2023-02-12T09:51:32;103338.44;;;7.17;100.00
72959;BME280;60008;50.826;6.896;2023-02-12T09:54:19;103348.97;;;7.36;100.00
72959;BME280;60008;50.826;6.896;2023-02-12T09:57:14;103340.78;;;7.24;100.00
72959;BME280;60008;50.826;6.896;2023-02-12T10:00:07;103355.13;;;7.18;100.00
72959;BME280;60008;50.826;6.896;2023-02-12T10:02:53;103352.91;;;7.45;100.00
72959;BME280;60008;50.826;6.896;2023-02-12T10:05:48;103361.16;;;7.73;100.00
72959;BME280;60008;50.826;6.896;2023-02-12T10:08:45;103359.13;;;7.78;100.00
72959;BME280;60008;50.826;6.896;2023-02-12T10:11:40;103350.75;;;7.87;100.00
72959;BME280;60008;50.826;6.896;2023-02-12T10:17:58;103348.75;;;8.08;100.00
72959;BME280;60008;50.826;6.896;2023-02-12T10:24:07;103356.78;;;7.72;100.00
72959;BME280;60008;50.826;6.896;2023-02-12T10:27:06;103355.75;;;8.09;100.00
72959;BME280;60008;50.826;6.896;2023-02-12T10:29:56;103351.44;;;8.41;100.00
72959;BME280;60008;50.826;6.896;2023-02-12T10:32:44;103343.88;;;8.17;100.00
72959;BME280;60008;50.826;6.896;2023-02-12T10:35:31;103345.97;;;7.94;100.00
72959;BME280;60008;50.826;6.896;2023-02-12T10:38:25;103349.66;;;8.24;100.00
72959;BME280;60008;50.826;6.896;2023-02-12T10:41:14;103345.16;;;7.93;100.00
72959;BME280;60008;50.826;6.896;2023-02-12T10:43:59;103353.09;;;7.76;100.00
72959;BME280;60008;50.826;6.896;2023-02-12T10:46:45;103349.97;;;7.85;100.00
72959;BME280;60008;50.826;6.896;2023-02-12T10:49:30;103349.53;;;8.27;100.00
72959;BME280;60008;50.826;6.896;2023-02-12T10:58:23;103329.66;;;8.03;100.00
72959;BME280;60008;50.826;6.896;2023-02-12T11:01:16;103337.19;;;8.27;100.00
72959;BME280;60008;50.826;6.896;2023-02-12T11:04:28;103336.34;;;8.43;100.00
72959;BME280;60008;50.826;6.896;2023-02-12T11:07:14;103326.31;;;8.49;100.00
72959;BME280;60008;50.826;6.896;2023-02-12T11:09:59;103324.78;;;8.45;100.00
72959;BME280;60008;50.826;6.896;2023-02-12T11:12:44;103321.03;;;8.65;100.00
72959;BME280;60008;50.826;6.896;2023-02-12T11:15:45;103309.16;;;9.03;100.00
72959;BME280;60008;50.826;6.896;2023-02-12T11:18:31;103318.47;;;9.10;100.00
72959;BME280;60008;50.826;6.896;2023-02-12T11:21:21;103302.38;;;9.13;100.00
72959;BME280;60008;50.826;6.896;2023-02-12T11:27:22;103310.09;;;9.18;100.00
72959;BME280;60008;50.826;6.896;2023-02-12T11:30:19;103309.69;;;8.78;100.00
72959;BME280;60008;50.826;6.896;2023-02-12T11:33:23;103302.66;;;9.09;100.00
72959;BME280;60008;50.826;6.896;2023-02-12T11:36:24;103284.25;;;9.37;100.00
72959;BME280;60008;50.826;6.896;2023-02-12T11:39:18;103291.72;;;9.15;100.00
72959;BME280;60008;50.826;6.896;2023-02-12T11:42:14;103287.41;;;8.98;100.00
72959;BME280;60008;50.826;6.896;2023-02-12T11:45:00;103284.31;;;9.06;100.00
72959;BME280;60008;50.826;6.896;2023-02-12T11:47:46;103283.63;;;9.18;100.00
72959;BME280;60008;50.826;6.896;2023-02-12T11:50:32;103296.88;;;8.86;100.00
72959;BME280;60008;50.826;6.896;2023-02-12T11:53:21;103290.53;;;8.75;100.00
72959;BME280;60008;50.826;6.896;2023-02-12T11:56:10;103288.69;;;8.75;100.00
72959;BME280;60008;50.826;6.896;2023-02-12T11:59:18;103279.03;;;9.06;100.00
72959;BME280;60008;50.826;6.896;2023-02-12T12:02:17;103265.16;;;9.02;100.00
72959;BME280;60008;50.826;6.896;2023-02-12T12:05:12;103255.97;;;9.23;100.00
72959;BME280;60008;50.826;6.896;2023-02-12T12:08:02;103257.72;;;9.52;100.00
72959;BME280;60008;50.826;6.896;2023-02-12T12:10:55;103260.75;;;9.17;100.00
72959;BME280;60008;50.826;6.896;2023-02-12T12:14:01;103253.25;;;9.39;100.00
72959;BME280;60008;50.826;6.896;2023-02-12T12:16:54;103247.88;;;9.54;100.00
72959;BME280;60008;50.826;6.896;2023-02-12T12:20:20;103249.13;;;9.19;100.00
72959;BME280;60008;50.826;6.896;2023-02-12T12:23:12;103235.16;;;9.17;100.00
72959;BME280;60008;50.826;6.896;2023-02-12T12:26:01;103246.00;;;9.13;100.00
72959;BME280;60008;50.826;6.896;2023-02-12T12:29:05;103237.06;;;8.99;100.00
72959;BME280;60008;50.826;6.896;2023-02-12T12:31:58;103242.69;;;9.09;100.00
72959;BME280;60008;50.826;6.896;2023-02-12T12:34:46;103235.16;;;9.17;100.00
72959;BME280;60008;50.826;6.896;2023-02-12T12:37:41;103235.03;;;9.05;100.00
72959;BME280;60008;50.826;6.896;2023-02-12T12:43:42;103222.41;;;9.24;100.00
72959;BME280;60008;50.826;6.896;2023-02-12T12:46:33;103218.69;;;9.70;100.00
72959;BME280;60008;50.826;6.896;2023-02-12T12:49:51;103209.31;;;9.79;100.00
72959;BME280;60008;50.826;6.896;2023-02-12T12:55:59;103213.44;;;9.26;100.00
72959;BME280;60008;50.826;6.896;2023-02-12T12:58:55;103208.84;;;9.72;100.00
72959;BME280;60008;50.826;6.896;2023-02-12T13:05:17;103194.22;;;9.09;100.00
72959;BME280;60008;50.826;6.896;2023-02-12T13:08:31;103194.72;;;9.43;100.00
72959;BME280;60008;50.826;6.896;2023-02-12T13:11:39;103187.09;;;9.53;100.00
72959;BME280;60008;50.826;6.896;2023-02-12T13:14:43;103190.31;;;9.44;100.00
72959;BME280;60008;50.826;6.896;2023-02-12T13:17:37;103184.44;;;9.81;100.00
72959;BME280;60008;50.826;6.896;2023-02-12T13:20:41;103184.72;;;9.34;100.00
72959;BME280;60008;50.826;6.896;2023-02-12T13:23:46;103178.19;;;9.82;100.00
72959;BME280;60008;50.826;6.896;2023-02-12T13:26:53;103174.88;;;9.36;100.00
72959;BME280;60008;50.826;6.896;2023-02-12T13:29:43;103169.31;;;9.55;100.00
72959;BME280;60008;50.826;6.896;2023-02-12T13:32:40;103167.72;;;9.52;100.00
72959;BME280;60008;50.826;6.896;2023-02-12T13:35:28;103171.50;;;9.77;100.00
72959;BME280;60008;50.826;6.896;2023-02-12T13:38:26;103169.28;;;9.97;100.00
72959;BME280;60008;50.826;6.896;2023-02-12T13:41:12;103162.78;;;9.46;100.00
72959;BME280;60008;50.826;6.896;2023-02-12T13:56:49;103156.09;;;9.55;100.00
72959;BME280;60008;50.826;6.896;2023-02-12T14:02:39;103153.13;;;9.88;100.00
72959;BME280;60008;50.826;6.896;2023-02-12T14:05:29;103151.66;;;9.70;100.00
72959;BME280;60008;50.826;6.896;2023-02-12T14:08:35;103158.19;;;9.64;100.00
72959;BME280;60008;50.826;6.896;2023-02-12T14:11:23;103153.16;;;9.45;100.00
72959;BME280;60008;50.826;6.896;2023-02-12T14:14:09;103143.22;;;9.63;100.00
72959;BME280;60008;50.826;6.896;2023-02-12T14:16:54;103147.34;;;9.81;100.00
72959;BME280;60008;50.826;6.896;2023-02-12T14:28:24;103145.59;;;9.53;100.00
72959;BME280;60008;50.826;6.896;2023-02-12T14:37:30;103150.78;;;9.83;100.00
72959;BME280;60008;50.826;6.896;2023-02-12T14:43:29;103150.59;;;9.72;100.00
72959;BME280;60008;50.826;6.896;2023-02-12T14:49:25;103151.66;;;9.70;100.00
72959;BME280;60008;50.826;6.896;2023-02-12T14:55:02;103148.59;;;9.76;100.00
72959;BME280;60008;50.826;6.896;2023-02-12T14:57:49;103146.25;;;9.71;100.00
72959;BME280;60008;50.826;6.896;2023-02-12T15:00:39;103151.25;;;9.76;100.00
72959;BME280;60008;50.826;6.896;2023-02-12T15:03:31;103143.97;;;9.65;100.00
72959;BME280;60008;50.826;6.896;2023-02-12T15:06:21;103139.09;;;9.59;100.00
72959;BME280;60008;50.826;6.896;2023-02-12T15:09:31;103150.13;;;9.66;100.00
72959;BME280;60008;50.826;6.896;2023-02-12T15:12:22;103141.44;;;9.64;100.00
72959;BME280;60008;50.826;6.896;2023-02-12T15:15:27;103147.00;;;9.73;100.00
72959;BME280;60008;50.826;6.896;2023-02-12T15:18:41;103137.84;;;9.65;100.00
72959;BME280;60008;50.826;6.896;2023-02-12T15:21:36;103134.63;;;9.45;100.00
72959;BME280;60008;50.826;6.896;2023-02-12T15:24:24;103140.31;;;9.53;100.00
72959;BME280;60008;50.826;6.896;2023-02-12T15:27:10;103138.50;;;9.54;100.00
72959;BME280;60008;50.826;6.896;2023-02-12T15:29:57;103139.94;;;9.45;100.00
72959;BME280;60008;50.826;6.896;2023-02-12T15:32:42;103140.75;;;9.46;100.00
72959;BME280;60008;50.826;6.896;2023-02-12T15:35:32;103129.97;;;9.49;100.00
72959;BME280;60008;50.826;6.896;2023-02-12T15:38:21;103140.38;;;9.52;100.00
72959;BME280;60008;50.826;6.896;2023-02-12T15:41:07;103137.66;;;9.53;100.00
72959;BME280;60008;50.826;6.896;2023-02-12T15:43:53;103133.41;;;9.51;100.00
72959;BME280;60008;50.826;6.896;2023-02-12T15:46:38;103132.63;;;9.49;100.00
72959;BME280;60008;50.826;6.896;2023-02-12T15:49:29;103130.16;;;9.46;100.00
72959;BME280;60008;50.826;6.896;2023-02-12T15:52:20;103132.94;;;9.44;100.00
72959;BME280;60008;50.826;6.896;2023-02-12T15:55:20;103131.22;;;9.43;100.00
72959;BME280;60008;50.826;6.896;2023-02-12T15:58:19;103119.88;;;9.41;100.00
72959;BME280;60008;50.826;6.896;2023-02-12T16:01:05;103130.38;;;9.43;100.00
72959;BME280;60008;50.826;6.896;2023-02-12T16:03:54;103130.56;;;9.40;100.00
72959;BME280;60008;50.826;6.896;2023-02-12T16:06:39;103121.59;;;9.42;100.00